createdAt,value
2023-04-04T00:00:29.906Z,3.13
2023-04-04T00:02:56.893Z,3.00
2023-04-04T00:05:23.947Z,3.07
2023-04-04T00:07:50.807Z,2.80
2023-04-04T00:10:17.690Z,2.90
2023-04-04T00:12:44.610Z,2.67
2023-04-04T00:15:12.235Z,2.97
2023-04-04T00:17:39.144Z,3.10
2023-04-04T00:20:06.692Z,3.03
2023-04-04T00:22:33.509Z,2.80
2023-04-04T00:25:00.784Z,2.90
2023-04-04T00:27:27.652Z,2.80
2023-04-04T00:29:54.660Z,2.80
2023-04-04T00:32:21.810Z,2.90
2023-04-04T00:34:56.221Z,3.07
2023-04-04T00:37:23.328Z,2.90
2023-04-04T00:39:50.386Z,2.80
2023-04-04T00:42:17.970Z,2.70
2023-04-04T00:44:45.078Z,2.90
2023-04-04T00:47:12.856Z,2.90
2023-04-04T00:49:39.710Z,3.20
2023-04-04T00:52:07.808Z,2.93
2023-04-04T00:54:36.234Z,3.00
2023-04-04T00:57:04.844Z,2.70
2023-04-04T00:59:32.695Z,2.83
2023-04-04T01:02:00.873Z,2.93
2023-04-04T01:04:31.567Z,2.97
2023-04-04T01:06:59.736Z,3.40
2023-04-04T01:09:27.675Z,2.70
2023-04-04T01:11:56.816Z,3.30
2023-04-04T01:14:24.865Z,3.20
2023-04-04T01:16:52.407Z,3.20
2023-04-04T01:19:32.314Z,2.73
2023-04-04T01:22:02.994Z,2.87
2023-04-04T01:24:34.186Z,3.07
2023-04-04T01:27:03.797Z,2.77
2023-04-04T01:29:31.722Z,2.70
2023-04-04T01:32:16.533Z,3.17
2023-04-04T01:34:47.254Z,3.00
2023-04-04T01:37:41.701Z,2.70
2023-04-04T01:40:15.740Z,3.10
2023-04-04T01:42:44.924Z,3.27
2023-04-04T01:45:12.559Z,3.17
2023-04-04T01:47:41.234Z,3.10
2023-04-04T01:50:11.703Z,3.10
2023-04-04T01:52:38.942Z,3.30
2023-04-04T01:55:06.257Z,2.90
2023-04-04T01:57:33.848Z,2.80
2023-04-04T02:00:01.307Z,3.10
2023-04-04T02:02:29.861Z,3.67
2023-04-04T02:04:56.729Z,3.00
2023-04-04T02:07:24.333Z,3.03
2023-04-04T02:09:51.680Z,3.00
2023-04-04T02:12:18.491Z,2.90
2023-04-04T02:14:45.958Z,2.97
2023-04-04T02:17:12.842Z,3.40
2023-04-04T02:19:39.711Z,3.20
2023-04-04T02:22:07.047Z,3.27
2023-04-04T02:24:33.887Z,3.30
2023-04-04T02:27:02.169Z,3.10
2023-04-04T02:29:29.032Z,3.00
2023-04-04T02:31:55.932Z,3.30
2023-04-04T02:34:22.986Z,3.00
2023-04-04T02:36:52.293Z,3.20
2023-04-04T02:39:21.059Z,3.20
2023-04-04T02:41:49.324Z,3.40
2023-04-04T02:44:16.164Z,3.30
2023-04-04T02:46:43.576Z,3.43
2023-04-04T02:49:15.699Z,3.00
2023-04-04T02:51:47.677Z,3.30
2023-04-04T02:54:14.754Z,3.30
2023-04-04T02:56:44.661Z,3.40
2023-04-04T02:59:11.594Z,3.13
2023-04-04T03:01:38.544Z,3.60
2023-04-04T03:04:05.807Z,3.17
2023-04-04T03:06:33.877Z,3.73
2023-04-04T03:09:01.251Z,3.20
2023-04-04T03:11:28.863Z,3.27
2023-04-04T03:13:56.098Z,3.50
2023-04-04T03:16:31.958Z,3.43
2023-04-04T03:18:58.998Z,3.37
2023-04-04T03:21:26.233Z,3.47
2023-04-04T03:23:56.499Z,3.50
2023-04-04T03:26:24.687Z,3.37
2023-04-04T03:28:52.985Z,3.40
2023-04-04T03:31:21.931Z,3.40
2023-04-04T03:33:49.131Z,3.50
2023-04-04T03:36:16.791Z,3.77
2023-04-04T03:38:46.988Z,3.57
2023-04-04T03:41:13.882Z,4.10
2023-04-04T03:43:40.685Z,3.57
2023-04-04T03:46:08.201Z,3.60
2023-04-04T03:48:35.340Z,3.77
2023-04-04T03:51:05.121Z,3.83
2023-04-04T03:53:32.237Z,4.27
2023-04-04T03:56:00.225Z,4.17
2023-04-04T03:58:28.977Z,4.00
2023-04-04T04:00:55.936Z,4.00
2023-04-04T04:03:24.112Z,4.00
2023-04-04T04:05:51.387Z,3.90
2023-04-04T04:08:18.334Z,3.73
2023-04-04T04:10:45.176Z,4.00
2023-04-04T04:13:12.092Z,3.83
2023-04-04T04:15:39.220Z,3.63
2023-04-04T04:18:11.078Z,3.90
2023-04-04T04:20:37.950Z,4.00
2023-04-04T04:23:04.773Z,3.57
2023-04-04T04:25:31.659Z,3.80
2023-04-04T04:28:10.812Z,3.80
2023-04-04T04:30:37.883Z,3.83
2023-04-04T04:33:05.066Z,3.37
2023-04-04T04:35:39.977Z,3.77
2023-04-04T04:38:08.649Z,3.60
2023-04-04T04:40:36.714Z,3.53
2023-04-04T04:43:09.195Z,3.70
2023-04-04T04:45:36.642Z,3.87
2023-04-04T04:48:08.805Z,3.73
2023-04-04T04:50:47.212Z,3.93
2023-04-04T04:53:17.790Z,3.93
2023-04-04T04:55:46.915Z,3.53
2023-04-04T04:58:14.708Z,3.83
2023-04-04T05:00:46.407Z,3.80
2023-04-04T05:03:13.496Z,3.57
2023-04-04T05:05:47.536Z,4.20
2023-04-04T05:08:15.772Z,4.57
2023-04-04T05:11:05.158Z,3.70
2023-04-04T05:13:33.315Z,3.67
2023-04-04T05:16:00.390Z,3.73
2023-04-04T05:18:28.471Z,3.90
2023-04-04T05:20:56.904Z,3.60
2023-04-04T05:23:27.318Z,3.70
2023-04-04T05:25:54.638Z,3.90
2023-04-04T05:28:23.617Z,3.90
2023-04-04T05:30:53.652Z,3.97
2023-04-04T05:33:24.764Z,3.73
2023-04-04T05:36:01.871Z,3.67
2023-04-04T05:38:31.439Z,3.90
2023-04-04T05:40:58.273Z,3.67
2023-04-04T05:43:26.047Z,3.70
2023-04-04T05:46:01.140Z,3.60
2023-04-04T05:48:33.731Z,3.50
2023-04-04T05:51:00.941Z,3.87
2023-04-04T05:53:54.005Z,3.43
2023-04-04T05:56:25.869Z,3.30
2023-04-04T05:58:55.756Z,3.60
2023-04-04T06:01:23.196Z,3.50
2023-04-04T06:03:53.257Z,3.70
2023-04-04T06:06:25.339Z,3.57
2023-04-04T06:08:53.931Z,3.60
2023-04-04T06:11:24.254Z,3.50
2023-04-04T06:13:55.136Z,3.60
2023-04-04T06:16:23.194Z,3.07
2023-04-04T06:18:50.229Z,3.80
2023-04-04T06:21:17.068Z,3.43
2023-04-04T06:23:44.608Z,3.50
2023-04-04T06:26:12.623Z,3.60
2023-04-04T06:28:49.439Z,3.00
2023-04-04T06:31:19.189Z,3.60
2023-04-04T06:33:47.583Z,3.90
2023-04-04T06:36:15.767Z,3.40
2023-04-04T06:38:42.685Z,3.90
2023-04-04T06:41:16.982Z,3.80
2023-04-04T06:43:48.709Z,3.30
2023-04-04T06:46:15.731Z,3.97
2023-04-04T06:48:42.641Z,3.40
2023-04-04T06:51:09.695Z,3.47
2023-04-04T06:53:40.374Z,3.60
2023-04-04T06:56:07.562Z,3.20
2023-04-04T06:58:34.550Z,3.63
2023-04-04T07:01:02.477Z,3.70
2023-04-04T07:03:29.460Z,4.03
2023-04-04T07:05:56.244Z,3.67
2023-04-04T07:08:23.093Z,3.60
2023-04-04T07:10:49.946Z,3.63
2023-04-04T07:13:16.855Z,3.20
2023-04-04T07:15:48.900Z,3.73
2023-04-04T07:18:16.483Z,3.23
2023-04-04T07:20:43.814Z,3.47
2023-04-04T07:23:13.241Z,4.00
2023-04-04T07:25:40.104Z,3.17
2023-04-04T07:28:13.062Z,3.50
2023-04-04T07:30:40.838Z,3.53
2023-04-04T07:33:08.164Z,3.60
2023-04-04T07:35:35.747Z,3.30
2023-04-04T07:38:03.264Z,3.50
2023-04-04T07:40:30.531Z,3.57
2023-04-04T07:42:57.456Z,3.40
2023-04-04T07:45:24.354Z,3.60
2023-04-04T07:47:51.591Z,3.43
2023-04-04T07:50:19.552Z,3.90
2023-04-04T07:52:54.583Z,3.57
2023-04-04T07:55:24.976Z,3.73
2023-04-04T07:57:52.657Z,3.43
2023-04-04T08:00:22.006Z,3.60
2023-04-04T08:02:56.552Z,3.47
2023-04-04T08:05:23.955Z,3.80
2023-04-04T08:07:51.422Z,3.70
2023-04-04T08:10:19.230Z,3.90
2023-04-04T08:12:46.273Z,3.50
2023-04-04T08:15:13.374Z,4.10
2023-04-04T08:17:40.818Z,4.03
2023-04-04T08:20:07.942Z,3.90
2023-04-04T08:22:34.758Z,3.97
2023-04-04T08:25:01.740Z,3.80
2023-04-04T08:27:28.595Z,4.07
2023-04-04T08:29:55.532Z,4.13
2023-04-04T08:32:22.534Z,4.10
2023-04-04T08:34:49.889Z,4.20
2023-04-04T08:37:17.112Z,3.80
2023-04-04T08:39:44.245Z,4.23
2023-04-04T08:42:12.482Z,4.07
2023-04-04T08:44:41.887Z,3.90
2023-04-04T08:47:10.519Z,3.83
2023-04-04T08:49:43.992Z,3.80
2023-04-04T08:52:12.924Z,3.77
2023-04-04T08:54:41.870Z,4.10
2023-04-04T08:57:08.730Z,4.03
2023-04-04T08:59:35.954Z,4.00
2023-04-04T09:02:09.036Z,4.17
2023-04-04T09:04:36.100Z,3.83
2023-04-04T09:07:05.263Z,3.70
2023-04-04T09:09:32.960Z,3.90
2023-04-04T09:12:02.111Z,3.70
2023-04-04T09:14:30.907Z,3.40
2023-04-04T09:16:58.234Z,4.27
2023-04-04T09:19:26.407Z,3.70
2023-04-04T09:21:53.470Z,3.90
2023-04-04T09:24:20.315Z,3.90
2023-04-04T09:26:51.958Z,3.50
2023-04-04T09:29:22.294Z,3.97
2023-04-04T09:31:50.640Z,3.80
2023-04-04T09:34:19.531Z,4.30
2023-04-04T09:36:46.645Z,3.70
2023-04-04T09:39:16.615Z,3.83
2023-04-04T09:41:45.785Z,3.70
2023-04-04T09:44:13.287Z,3.80
2023-04-04T09:46:40.893Z,3.80
2023-04-04T09:49:13.368Z,3.73
2023-04-04T09:51:42.487Z,3.60
2023-04-04T09:54:28.947Z,3.53
2023-04-04T09:56:56.956Z,3.83
2023-04-04T09:59:24.702Z,3.97
2023-04-04T10:01:54.432Z,3.87
2023-04-04T10:04:21.728Z,3.83
2023-04-04T10:06:48.689Z,3.67
2023-04-04T10:09:16.214Z,3.83
2023-04-04T10:11:43.111Z,3.63
2023-04-04T10:14:10.099Z,3.67
2023-04-04T10:16:37.762Z,3.87
2023-04-04T10:19:07.854Z,3.87
2023-04-04T10:21:35.706Z,3.63
2023-04-04T10:24:09.313Z,3.83
2023-04-04T10:26:37.078Z,3.43
2023-04-04T10:29:05.783Z,3.90
2023-04-04T10:31:34.518Z,3.73
2023-04-04T10:34:15.582Z,3.40
2023-04-04T10:36:48.726Z,3.40
2023-04-04T10:39:24.216Z,3.97
2023-04-04T10:41:52.548Z,3.87
2023-04-04T10:44:22.475Z,3.53
2023-04-04T10:46:53.749Z,3.90
2023-04-04T10:49:22.480Z,3.77
2023-04-04T10:51:56.446Z,3.97
2023-04-04T10:54:25.897Z,3.73
2023-04-04T10:56:53.747Z,3.90
2023-04-04T10:59:20.642Z,3.77
2023-04-04T11:01:56.914Z,4.00
2023-04-04T11:04:35.604Z,4.03
2023-04-04T11:07:13.999Z,3.90
2023-04-04T11:09:57.119Z,3.73
2023-04-04T11:12:36.153Z,4.30
2023-04-04T11:15:04.071Z,4.03
2023-04-04T11:17:49.890Z,3.60
2023-04-04T11:20:18.714Z,3.30
2023-04-04T11:22:45.868Z,3.70
2023-04-04T11:25:24.974Z,3.73
2023-04-04T11:27:56.547Z,3.60
2023-04-04T11:30:24.202Z,4.03
2023-04-04T11:33:03.872Z,3.87
2023-04-04T11:35:33.654Z,3.87
2023-04-04T11:38:01.262Z,4.00
2023-04-04T11:40:36.171Z,4.07
2023-04-04T11:43:09.908Z,3.90
2023-04-04T11:45:37.818Z,4.20
2023-04-04T11:48:07.022Z,3.87
2023-04-04T11:50:39.706Z,3.63
2023-04-04T11:53:11.240Z,3.77
2023-04-04T11:55:48.008Z,4.20
2023-04-04T11:58:17.010Z,4.10
2023-04-04T12:00:44.732Z,3.97
2023-04-04T12:03:12.772Z,4.07
2023-04-04T12:05:42.338Z,4.00
2023-04-04T12:08:11.274Z,4.13
2023-04-04T12:10:40.371Z,3.87
2023-04-04T12:13:09.058Z,4.00
2023-04-04T12:15:37.164Z,3.93
2023-04-04T12:18:08.752Z,4.20
2023-04-04T12:20:40.061Z,4.07
2023-04-04T12:23:07.074Z,3.90
2023-04-04T12:25:34.268Z,4.00
2023-04-04T12:28:04.384Z,4.00
2023-04-04T12:30:31.557Z,3.90
2023-04-04T12:32:58.923Z,3.90
2023-04-04T12:35:26.082Z,4.27
2023-04-04T12:38:04.499Z,4.00
2023-04-04T12:40:39.042Z,4.10
2023-04-04T12:43:09.432Z,4.20
2023-04-04T12:45:40.997Z,4.07
2023-04-04T12:48:14.194Z,3.90
2023-04-04T12:50:55.793Z,3.90
2023-04-04T12:53:29.499Z,4.23
2023-04-04T12:56:02.427Z,3.77
2023-04-04T12:58:29.632Z,3.93
2023-04-04T13:01:00.317Z,3.80
2023-04-04T13:03:28.643Z,4.07
2023-04-04T13:05:55.647Z,3.57
2023-04-04T13:08:22.594Z,3.90
2023-04-04T13:11:02.182Z,4.10
2023-04-04T13:13:40.714Z,3.83
2023-04-04T13:16:12.956Z,4.03
2023-04-04T13:18:43.287Z,3.80
2023-04-04T13:21:11.940Z,4.10
2023-04-04T13:23:40.880Z,3.83
2023-04-04T13:26:09.369Z,3.80
2023-04-04T13:28:36.782Z,4.07
2023-04-04T13:31:05.098Z,4.23
2023-04-04T13:33:32.518Z,4.03
2023-04-04T13:36:00.130Z,3.93
2023-04-04T13:38:28.067Z,4.20
2023-04-04T13:40:57.025Z,4.07
2023-04-04T13:43:23.842Z,4.17
2023-04-04T13:45:53.175Z,4.00
2023-04-04T13:48:20.090Z,4.10
2023-04-04T13:50:51.321Z,4.13
2023-04-04T13:53:18.737Z,3.70
2023-04-04T13:56:01.349Z,4.27
2023-04-04T13:58:32.932Z,3.70
2023-04-04T14:01:03.604Z,4.13
2023-04-04T14:03:31.287Z,3.70
2023-04-04T14:06:00.322Z,3.43
2023-04-04T14:08:31.232Z,3.43
2023-04-04T14:10:58.577Z,4.00
2023-04-04T14:13:25.866Z,4.27
2023-04-04T14:15:52.770Z,3.53
2023-04-04T14:18:20.215Z,4.23
2023-04-04T14:20:47.087Z,3.73
2023-04-04T14:23:13.967Z,3.80
2023-04-04T14:25:42.391Z,3.90
2023-04-04T14:28:09.514Z,4.20
2023-04-04T14:30:36.314Z,4.03
2023-04-04T14:33:03.198Z,4.17
2023-04-04T14:35:30.388Z,3.73
2023-04-04T14:37:57.578Z,3.87
2023-04-04T14:40:24.489Z,3.97
2023-04-04T14:42:51.367Z,4.27
2023-04-04T14:45:18.313Z,3.83
2023-04-04T14:47:45.222Z,4.00
2023-04-04T14:50:12.657Z,4.17
2023-04-04T14:52:40.157Z,3.90
2023-04-04T14:55:09.405Z,3.93
2023-04-04T14:57:46.951Z,3.90
2023-04-04T15:00:24.244Z,4.93
2023-04-04T15:02:51.379Z,3.93
2023-04-04T15:05:19.370Z,4.23
2023-04-04T15:07:46.908Z,4.17
2023-04-04T15:10:13.975Z,4.40
2023-04-04T15:12:40.845Z,4.23
2023-04-04T15:15:08.400Z,4.03
2023-04-04T15:17:36.529Z,4.50
2023-04-04T15:20:03.535Z,4.10
2023-04-04T15:22:30.521Z,4.90
2023-04-04T15:24:57.662Z,4.67
2023-04-04T15:27:24.561Z,4.63
2023-04-04T15:29:52.678Z,4.93
2023-04-04T15:32:19.554Z,4.30
2023-04-04T15:34:46.430Z,4.20
2023-04-04T15:37:13.261Z,4.33
2023-04-04T15:39:51.885Z,4.30
2023-04-04T15:42:20.153Z,4.27
2023-04-04T15:44:46.974Z,4.47
2023-04-04T15:47:14.061Z,4.37
2023-04-04T15:49:40.929Z,4.70
2023-04-04T15:52:07.753Z,4.20
2023-04-04T15:54:34.563Z,5.03
2023-04-04T15:57:01.907Z,4.30
2023-04-04T15:59:31.701Z,4.37
2023-04-04T16:01:58.986Z,4.50
2023-04-04T16:04:25.946Z,4.00
2023-04-04T16:06:52.825Z,4.13
2023-04-04T16:09:21.395Z,4.17
2023-04-04T16:11:48.564Z,4.47
2023-04-04T16:14:16.100Z,4.70
2023-04-04T16:16:42.977Z,4.07
2023-04-04T16:19:10.259Z,4.30
2023-04-04T16:21:37.947Z,4.43
2023-04-04T16:24:05.210Z,4.93
2023-04-04T16:26:32.154Z,4.50
2023-04-04T16:28:58.990Z,4.83
2023-04-04T16:31:25.932Z,4.57
2023-04-04T16:33:52.815Z,4.70
2023-04-04T16:36:19.829Z,4.00
2023-04-04T16:38:46.719Z,4.23
2023-04-04T16:41:13.804Z,4.47
2023-04-04T16:43:40.682Z,4.60
2023-04-04T16:46:07.488Z,4.17
2023-04-04T16:48:34.305Z,4.00
2023-04-04T16:51:02.437Z,4.43
2023-04-04T16:53:29.214Z,4.40
2023-04-04T16:55:56.043Z,4.30
2023-04-04T16:58:22.951Z,4.57
2023-04-04T17:00:49.819Z,4.17
2023-04-04T17:03:16.805Z,3.77
2023-04-04T17:05:43.623Z,3.93
2023-04-04T17:08:11.474Z,4.60
2023-04-04T17:10:40.587Z,4.17
2023-04-04T17:13:08.254Z,4.80
2023-04-04T17:15:36.668Z,4.53
2023-04-04T17:18:04.298Z,4.50
2023-04-04T17:20:34.206Z,4.27
2023-04-04T17:23:01.404Z,4.47
2023-04-04T17:25:29.351Z,4.73
2023-04-04T17:27:56.484Z,4.60
2023-04-04T17:30:24.587Z,4.63
2023-04-04T17:32:54.418Z,5.20
2023-04-04T17:35:21.743Z,4.67
2023-04-04T17:37:48.582Z,4.93
2023-04-04T17:40:15.445Z,5.00
2023-04-04T17:42:42.286Z,4.67
2023-04-04T17:45:11.432Z,4.60
2023-04-04T17:47:38.428Z,4.43
2023-04-04T17:50:05.693Z,5.03
2023-04-04T17:52:33.358Z,4.80
2023-04-04T17:55:00.618Z,4.90
2023-04-04T17:57:27.532Z,4.73
2023-04-04T17:59:54.357Z,4.83
2023-04-04T18:02:21.266Z,4.80
2023-04-04T18:04:48.138Z,4.47
2023-04-04T18:07:15.043Z,4.93
2023-04-04T18:09:43.590Z,4.90
2023-04-04T18:12:11.158Z,5.10
2023-04-04T18:14:38.265Z,4.80
2023-04-04T18:17:05.437Z,4.87
2023-04-04T18:19:32.445Z,4.70
2023-04-04T18:22:02.042Z,4.30
2023-04-04T18:24:29.265Z,4.67
2023-04-04T18:26:56.873Z,5.23
2023-04-04T18:29:25.032Z,4.97
2023-04-04T18:31:52.850Z,5.17
2023-04-04T18:34:20.037Z,4.77
2023-04-04T18:36:49.346Z,5.30
2023-04-04T18:39:18.482Z,5.03
2023-04-04T18:41:46.481Z,5.17
2023-04-04T18:44:13.387Z,5.40
2023-04-04T18:46:40.445Z,5.63
2023-04-04T18:49:07.897Z,5.50
2023-04-04T18:51:34.800Z,5.23
2023-04-04T18:54:02.024Z,5.70
2023-04-04T18:56:28.847Z,5.93
2023-04-04T18:58:55.900Z,5.90
2023-04-04T19:01:24.443Z,5.57
2023-04-04T19:03:52.419Z,5.33
2023-04-04T19:06:19.323Z,5.30
2023-04-04T19:08:47.633Z,5.63
2023-04-04T19:11:15.746Z,6.07
2023-04-04T19:13:42.750Z,5.80
2023-04-04T19:16:09.748Z,6.27
2023-04-04T19:18:36.721Z,6.60
2023-04-04T19:21:05.575Z,5.90
2023-04-04T19:23:32.628Z,6.30
2023-04-04T19:26:02.215Z,6.73
2023-04-04T19:28:29.535Z,6.90
2023-04-04T19:30:56.392Z,6.40
2023-04-04T19:33:26.040Z,6.57
2023-04-04T19:35:59.689Z,6.50
2023-04-04T19:38:37.932Z,6.50
2023-04-04T19:41:09.379Z,6.23
2023-04-04T19:43:36.338Z,6.00
2023-04-04T19:46:23.867Z,6.53
2023-04-04T19:48:53.146Z,6.50
2023-04-04T19:51:22.698Z,6.67
2023-04-04T19:53:54.599Z,6.57
2023-04-04T19:56:23.618Z,6.67
2023-04-04T19:58:58.782Z,6.40
2023-04-04T20:01:30.166Z,6.77
2023-04-04T20:03:57.679Z,6.40
2023-04-04T20:06:29.357Z,6.83
2023-04-04T20:09:01.755Z,7.20
2023-04-04T20:11:33.564Z,7.57
2023-04-04T20:14:07.905Z,7.03
2023-04-04T20:16:35.705Z,6.63
2023-04-04T20:19:06.609Z,6.70
2023-04-04T20:21:35.597Z,6.60
2023-04-04T20:24:09.929Z,7.00
2023-04-04T20:26:58.122Z,6.90
2023-04-04T20:29:32.628Z,7.23
2023-04-04T20:32:02.026Z,7.27
2023-04-04T20:34:49.825Z,6.77
2023-04-04T20:37:21.868Z,8.03
2023-04-04T20:40:01.401Z,7.60
2023-04-04T20:42:32.236Z,8.50
2023-04-04T20:45:36.792Z,7.90
2023-04-04T20:48:07.702Z,7.47
2023-04-04T20:50:34.802Z,6.70
2023-04-04T20:53:04.900Z,7.30
2023-04-04T20:55:33.767Z,7.00
2023-04-04T20:58:18.039Z,6.63
2023-04-04T21:00:44.989Z,6.60
2023-04-04T21:03:35.896Z,7.60
2023-04-04T21:06:16.610Z,7.23
2023-04-04T21:08:51.053Z,7.37
2023-04-04T21:11:28.743Z,9.03
2023-04-04T21:13:56.785Z,8.57
2023-04-04T21:16:26.303Z,7.60
2023-04-04T21:19:01.404Z,7.80
2023-04-04T21:21:28.754Z,8.10
2023-04-04T21:23:57.662Z,7.00
2023-04-04T21:26:41.780Z,7.80
2023-04-04T21:29:21.433Z,7.27
2023-04-04T21:31:49.390Z,10.50
2023-04-04T21:34:19.721Z,13.13
2023-04-04T21:36:47.048Z,16.60
2023-04-04T21:39:24.213Z,12.37
2023-04-04T21:42:03.632Z,9.33
2023-04-04T21:44:31.948Z,8.00
2023-04-04T21:46:58.777Z,6.60
2023-04-04T21:49:26.446Z,6.87
2023-04-04T21:51:53.310Z,6.23
2023-04-04T21:54:20.238Z,6.20
2023-04-04T21:56:47.233Z,5.90
2023-04-04T21:59:14.129Z,6.00
2023-04-04T22:01:41.409Z,5.93
2023-04-04T22:04:08.490Z,6.00
2023-04-04T22:06:36.287Z,6.30
2023-04-04T22:09:04.293Z,6.00
2023-04-04T22:11:31.278Z,5.80
2023-04-04T22:14:04.661Z,6.30
2023-04-04T22:16:32.306Z,6.37
2023-04-04T22:19:01.246Z,5.93
2023-04-04T22:21:28.536Z,6.67
2023-04-04T22:24:05.786Z,5.93
2023-04-04T22:26:33.271Z,5.27
2023-04-04T22:29:03.032Z,6.30
2023-04-04T22:31:30.423Z,5.60
2023-04-04T22:33:57.281Z,5.60
2023-04-04T22:36:25.205Z,5.90
2023-04-04T22:38:56.834Z,5.60
2023-04-04T22:41:27.434Z,5.87
2023-04-04T22:43:54.567Z,5.40
2023-04-04T22:46:21.520Z,6.17
2023-04-04T22:48:48.476Z,5.23
2023-04-04T22:51:16.399Z,5.43
2023-04-04T22:53:44.433Z,5.90
2023-04-04T22:56:11.719Z,5.30
2023-04-04T22:58:38.816Z,5.70
2023-04-04T23:01:06.539Z,5.10
2023-04-04T23:03:33.705Z,5.70
2023-04-04T23:06:00.789Z,6.23
2023-04-04T23:08:27.648Z,7.47
2023-04-04T23:10:54.486Z,6.90
2023-04-04T23:13:21.917Z,6.40
2023-04-04T23:15:49.310Z,6.40
2023-04-04T23:18:16.267Z,6.60
2023-04-04T23:20:43.357Z,6.20
2023-04-04T23:23:10.527Z,6.27
2023-04-04T23:25:37.362Z,5.30
2023-04-04T23:28:04.228Z,5.60
2023-04-04T23:30:31.401Z,5.70
2023-04-04T23:32:58.350Z,5.77
2023-04-04T23:35:25.430Z,5.47
2023-04-04T23:37:52.292Z,5.30
2023-04-04T23:40:19.145Z,5.53
2023-04-04T23:42:45.989Z,5.40
2023-04-04T23:45:12.997Z,5.30
2023-04-04T23:47:40.009Z,5.77
2023-04-04T23:50:07.558Z,5.60
2023-04-04T23:52:35.142Z,5.20
2023-04-04T23:55:01.961Z,5.07
2023-04-04T23:57:28.791Z,4.90
2023-04-04T23:59:55.784Z,5.40
